Main page
METAR-TAF:

METAR-TAF

Airports :

Chlef International Airport

Chlef, Algeria

latitude: 36-13N, longitude: 001-20E, elevation: 143 m

Current weather observation

The report was made 53 minutes ago, at 05:00 UTC
Calm wind
Temperature 23°C
Humidity 73%
Pressure 1016 hPa
Visibility 10 km or more
Few clouds at a height of 2600 ft

METAR: DAOI 250500Z 00000KT 9999 FEW026 23/18 Q1016

Time: 06:53 (05:53 UTC)

Forecast

The report was made 53 minutes ago, at 05:00 UTC
Forecast valid from 25 at 06 UTC to 26 at 06 UTC
Wind 2 kt from variable directions
Visibility 10 km or more
no clouds below 1500 m and no cumulonimbus
Becoming
from 25 at 10 UTC to 25 at 12 UTC
Wind 10 kt from the North/Northeast
Becoming
from 25 at 18 UTC to 25 at 20 UTC
Wind 2 kt from variable directions

TAF: DAOI 250500Z 2506/2606 VRB02KT CAVOK BECMG 2510/2512 02010KT BECMG 2518/2520 VRB02KT

Weather observations and forecasts of more than 4000 airports (METAR and TAF reports).

The available stations are represented by yellow and red dots on the map.

Hover mouse over dot to see the name of the station.

Then click to see weather observations and forecasts.

To change the map : click on the green buttons with a black cross to zoom in, on the green button with a dash to zoom out, or on the green arrows for adjacent maps.


METAR-TAF: